KELZ/ELZ METAR and TAF weather

Enter ICAO airport designator
Station Type Date Time Source
KELZ METAR 2024/07/24 11:56 UTC NOAA

KELZ 241156Z AUTO VRB05KT 10SM FEW110 21/18 A3014 RMK AO2 SLP195 T02060178 10206 20183 53003


Station Type Date Time Source
KELZ Decoded METAR 2024/07/24 11:56 UTC NOAA

WELLSVILLE MUNICIPAL AIRPORT, NY, United States (KELZ) 42-06N 077-60W 646M
Jul 24, 2024 - 07:56 AM EDT / 2024.07.24 1156 UTC
Wind: Variable at 6 MPH (5 KT):0
Visibility: 10 mile(s):0
Sky conditions: mostly clear
Temperature: 69.1 F (20.6 C)
Dew Point: 64.0 F (17.8 C)
Relative Humidity: 83%
Pressure (altimeter): 30.14 in. Hg (1020 hPa)
Pressure tendency: 0.01 inches (0.3 hPa) higher than three hours ago
ob: KELZ 241156Z AUTO VRB05KT 10SM FEW110 21/18 A3014 RMK AO2 SLP195 T02060178 10206 20183 53003
cycle: 12

Station Type Date Time Source
KELZ TAF UTC NOAA

Error!

Example: see airport list